createdAt,value
2018-03-17T00:00:03.679Z,2.68
2018-03-17T00:02:32.792Z,2.73
2018-03-17T00:05:01.964Z,2.69
2018-03-17T00:07:31.191Z,2.54
2018-03-17T00:10:00.328Z,2.61
2018-03-17T00:12:29.612Z,2.52
2018-03-17T00:15:01.091Z,2.52
2018-03-17T00:17:30.218Z,2.48
2018-03-17T00:19:59.296Z,2.46
2018-03-17T00:22:28.338Z,2.40
2018-03-17T00:24:57.790Z,2.34
2018-03-17T00:27:26.742Z,2.47
2018-03-17T00:29:55.742Z,2.46
2018-03-17T00:32:24.871Z,2.52
2018-03-17T00:34:53.880Z,2.59
2018-03-17T00:37:22.916Z,2.57
2018-03-17T00:39:52.091Z,2.66
2018-03-17T00:42:21.287Z,2.88
2018-03-17T00:44:50.341Z,2.84
2018-03-17T00:47:19.335Z,3.01
2018-03-17T00:49:48.356Z,3.27
2018-03-17T00:52:17.403Z,3.21
2018-03-17T00:54:46.352Z,3.21
2018-03-17T00:57:15.374Z,3.15
2018-03-17T00:59:44.439Z,3.05
2018-03-17T01:02:13.831Z,3.12
2018-03-17T01:04:42.966Z,3.24
2018-03-17T01:07:12.112Z,3.19
2018-03-17T01:09:41.221Z,3.30
2018-03-17T01:12:10.313Z,3.39
2018-03-17T01:14:39.396Z,3.20
2018-03-17T01:17:08.424Z,3.47
2018-03-17T01:19:39.039Z,3.31
2018-03-17T01:22:08.229Z,3.35
2018-03-17T01:24:37.229Z,3.28
2018-03-17T01:27:06.288Z,3.28
2018-03-17T01:29:36.077Z,3.37
2018-03-17T01:32:05.113Z,3.38
2018-03-17T01:34:34.113Z,3.25
2018-03-17T01:37:03.061Z,3.25
2018-03-17T01:39:32.167Z,3.49
2018-03-17T01:42:02.014Z,3.35
2018-03-17T01:44:30.965Z,3.41
2018-03-17T01:46:59.881Z,3.39
2018-03-17T01:49:28.950Z,3.47
2018-03-17T01:51:58.304Z,3.51
2018-03-17T01:54:33.061Z,3.59
2018-03-17T01:57:02.140Z,3.52
2018-03-17T01:59:31.310Z,3.56
2018-03-17T02:02:00.382Z,3.64
2018-03-17T02:04:29.412Z,3.49
2018-03-17T02:06:58.400Z,3.39
2018-03-17T02:09:27.358Z,3.37
2018-03-17T02:11:56.445Z,3.41
2018-03-17T02:14:25.459Z,3.43
2018-03-17T02:16:54.492Z,3.59
2018-03-17T02:19:23.576Z,3.72
2018-03-17T02:21:52.573Z,3.79
2018-03-17T02:24:21.574Z,3.85
2018-03-17T02:26:50.945Z,3.72
2018-03-17T02:29:19.885Z,3.77
2018-03-17T02:31:49.920Z,3.81
2018-03-17T02:34:18.975Z,4.02
2018-03-17T02:36:48.019Z,4.02
2018-03-17T02:39:17.112Z,4.16
2018-03-17T02:41:46.180Z,4.15
2018-03-17T02:44:15.138Z,4.22
2018-03-17T02:46:44.178Z,4.35
2018-03-17T02:49:13.173Z,4.49
2018-03-17T02:51:42.278Z,4.73
2018-03-17T02:54:11.453Z,4.75
2018-03-17T02:56:40.447Z,4.81
2018-03-17T02:59:09.387Z,4.90
2018-03-17T03:01:38.370Z,4.98
2018-03-17T03:04:07.664Z,5.09
2018-03-17T03:06:36.743Z,5.25
2018-03-17T03:09:06.897Z,5.32
2018-03-17T03:11:35.851Z,5.42
2018-03-17T03:14:04.909Z,5.43
2018-03-17T03:16:33.951Z,5.47
2018-03-17T03:19:02.889Z,5.51
2018-03-17T03:21:31.907Z,5.50
2018-03-17T03:24:00.952Z,5.51
2018-03-17T03:26:29.939Z,5.52
2018-03-17T03:29:00.014Z,5.59
2018-03-17T03:31:28.947Z,5.63
2018-03-17T03:33:57.921Z,5.64
2018-03-17T03:36:26.941Z,5.73
2018-03-17T03:38:55.922Z,5.73
2018-03-17T03:41:24.870Z,5.72
2018-03-17T03:43:53.968Z,5.64
2018-03-17T03:46:23.058Z,5.55
2018-03-17T03:51:44.955Z,5.54
2018-03-17T03:54:14.180Z,5.57
2018-03-17T03:56:43.297Z,5.49
2018-03-17T03:59:12.452Z,5.26
2018-03-17T04:01:41.499Z,5.44
2018-03-17T04:04:10.657Z,5.36
2018-03-17T04:06:39.743Z,5.39
2018-03-17T04:09:08.825Z,5.32
2018-03-17T04:11:37.904Z,5.39
2018-03-17T04:14:06.926Z,5.28
2018-03-17T04:16:35.969Z,5.16
2018-03-17T04:19:05.047Z,5.11
2018-03-17T04:21:34.816Z,5.15
2018-03-17T04:24:03.921Z,5.16
2018-03-17T04:26:32.940Z,5.15
2018-03-17T04:29:02.321Z,5.05
2018-03-17T04:31:31.397Z,4.99
2018-03-17T04:34:00.493Z,4.86
2018-03-17T04:36:29.540Z,4.81
2018-03-17T04:38:58.726Z,4.85
2018-03-17T04:41:27.778Z,4.79
2018-03-17T04:43:56.825Z,4.79
2018-03-17T04:46:25.864Z,4.80
2018-03-17T04:48:54.963Z,4.89
2018-03-17T04:51:24.065Z,4.81
2018-03-17T04:53:53.187Z,4.70
2018-03-17T04:56:22.280Z,4.56
2018-03-17T04:58:51.351Z,4.64
2018-03-17T05:01:20.442Z,4.68
2018-03-17T05:03:49.636Z,4.51
2018-03-17T05:06:19.695Z,4.51
2018-03-17T05:08:48.755Z,4.55
2018-03-17T05:11:17.778Z,4.41
2018-03-17T05:13:46.887Z,4.34
2018-03-17T05:16:16.052Z,4.21
2018-03-17T05:18:45.154Z,4.39
2018-03-17T05:21:14.409Z,4.16
2018-03-17T05:23:43.555Z,4.15
2018-03-17T05:26:12.753Z,4.33
2018-03-17T05:28:41.844Z,4.31
2018-03-17T05:31:11.016Z,4.38
2018-03-17T05:33:40.068Z,4.35
2018-03-17T05:36:09.113Z,4.25
2018-03-17T05:38:38.271Z,4.14
2018-03-17T05:41:07.297Z,4.11
2018-03-17T05:43:36.345Z,4.18
2018-03-17T05:46:05.508Z,4.28
2018-03-17T05:48:35.331Z,4.21
2018-03-17T05:51:04.628Z,4.19
2018-03-17T05:53:33.925Z,4.18
2018-03-17T05:56:03.253Z,4.16
2018-03-17T05:58:32.368Z,4.22
2018-03-17T06:01:01.524Z,4.27
2018-03-17T06:03:30.649Z,4.13
2018-03-17T06:05:59.872Z,4.02
2018-03-17T06:08:29.164Z,4.02
2018-03-17T06:10:58.554Z,3.90
2018-03-17T06:13:28.666Z,3.85
2018-03-17T06:16:13.691Z,3.93
2018-03-17T06:18:42.819Z,3.85
2018-03-17T06:21:11.968Z,3.86
2018-03-17T06:23:41.051Z,3.89
2018-03-17T06:26:11.058Z,3.87
2018-03-17T06:28:40.259Z,3.89
2018-03-17T06:31:09.283Z,4.03
2018-03-17T06:33:38.446Z,4.05
2018-03-17T06:36:08.484Z,3.81
2018-03-17T06:38:37.731Z,3.81
2018-03-17T06:41:06.891Z,4.03
2018-03-17T06:43:37.051Z,4.06
2018-03-17T06:46:06.083Z,4.09
2018-03-17T06:48:35.091Z,4.17
2018-03-17T06:51:04.276Z,4.23
2018-03-17T06:53:33.388Z,3.89
2018-03-17T06:56:02.488Z,4.16
2018-03-17T06:58:31.583Z,4.07
2018-03-17T07:01:00.648Z,3.83
2018-03-17T07:03:29.830Z,3.77
2018-03-17T07:05:58.860Z,3.94
2018-03-17T07:08:27.955Z,3.89
2018-03-17T07:10:57.308Z,3.97
2018-03-17T07:13:26.463Z,3.82
2018-03-17T07:15:55.669Z,3.93
2018-03-17T07:18:24.751Z,3.93
2018-03-17T07:20:54.053Z,3.88
2018-03-17T07:23:23.158Z,3.95
2018-03-17T07:25:52.234Z,3.86
2018-03-17T07:28:21.407Z,3.86
2018-03-17T07:30:50.642Z,3.87
2018-03-17T07:33:19.812Z,3.64
2018-03-17T07:35:48.936Z,3.87
2018-03-17T07:38:18.228Z,3.92
2018-03-17T07:40:47.438Z,3.82
2018-03-17T07:43:16.852Z,4.02
2018-03-17T07:45:45.933Z,3.92
2018-03-17T07:48:15.029Z,3.72
2018-03-17T07:50:44.038Z,3.71
2018-03-17T07:53:13.238Z,3.83
2018-03-17T07:55:42.360Z,3.96
2018-03-17T07:58:11.419Z,3.94
2018-03-17T08:00:40.531Z,4.03
2018-03-17T08:03:09.629Z,3.94
2018-03-17T08:05:38.806Z,3.77
2018-03-17T08:08:07.994Z,3.53
2018-03-17T08:10:37.740Z,3.55
2018-03-17T08:13:07.194Z,3.63
2018-03-17T08:15:36.215Z,3.89
2018-03-17T08:18:05.375Z,3.79
2018-03-17T08:20:34.598Z,3.80
2018-03-17T08:23:03.751Z,3.72
2018-03-17T08:25:33.955Z,3.93
2018-03-17T08:28:03.053Z,3.75
2018-03-17T08:30:32.219Z,3.61
2018-03-17T08:33:01.268Z,3.66
2018-03-17T08:35:30.384Z,3.41
2018-03-17T08:37:59.597Z,3.59
2018-03-17T08:40:28.644Z,3.36
2018-03-17T08:42:57.792Z,3.62
2018-03-17T08:45:27.319Z,3.35
2018-03-17T08:47:56.588Z,3.58
2018-03-17T08:50:25.639Z,3.75
2018-03-17T08:52:56.069Z,3.59
2018-03-17T08:55:25.149Z,3.71
2018-03-17T08:57:54.278Z,3.94
2018-03-17T09:00:23.543Z,3.52
2018-03-17T09:02:52.951Z,3.35
2018-03-17T09:05:22.126Z,3.60
2018-03-17T09:07:54.860Z,3.77
2018-03-17T09:10:24.192Z,3.82
2018-03-17T09:12:53.501Z,3.64
2018-03-17T09:15:24.945Z,3.47
2018-03-17T09:17:54.093Z,3.39
2018-03-17T09:20:23.689Z,3.57
2018-03-17T09:22:52.835Z,3.52
2018-03-17T09:25:22.388Z,3.35
2018-03-17T09:27:51.403Z,3.30
2018-03-17T09:30:20.652Z,3.31
2018-03-17T09:32:51.375Z,3.59
2018-03-17T09:35:20.408Z,3.52
2018-03-17T09:37:49.461Z,3.43
2018-03-17T09:40:18.508Z,3.46
2018-03-17T09:42:47.809Z,3.55
2018-03-17T09:45:16.921Z,3.48
2018-03-17T09:47:46.020Z,3.57
2018-03-17T09:50:15.112Z,3.79
2018-03-17T09:52:44.443Z,3.74
2018-03-17T09:55:13.540Z,3.76
2018-03-17T09:57:42.690Z,4.03
2018-03-17T10:00:11.944Z,3.50
2018-03-17T10:02:41.589Z,3.50
2018-03-17T10:05:10.659Z,3.50
2018-03-17T10:07:39.705Z,3.29
2018-03-17T10:10:08.765Z,3.47
2018-03-17T10:12:43.779Z,3.61
2018-03-17T10:15:12.901Z,3.35
2018-03-17T10:17:41.951Z,3.62
2018-03-17T10:20:10.981Z,3.52
2018-03-17T10:22:39.988Z,3.25
2018-03-17T10:25:09.497Z,3.43
2018-03-17T10:27:38.732Z,3.26
2018-03-17T10:30:07.850Z,3.39
2018-03-17T10:32:36.967Z,3.13
2018-03-17T10:35:06.138Z,3.27
2018-03-17T10:37:35.226Z,3.48
2018-03-17T10:40:05.693Z,3.35
2018-03-17T10:42:34.772Z,3.07
2018-03-17T10:45:04.018Z,3.04
2018-03-17T10:47:33.182Z,3.15
2018-03-17T10:50:02.737Z,3.28
2018-03-17T10:52:31.808Z,3.28
2018-03-17T10:55:00.982Z,3.04
2018-03-17T10:57:30.219Z,3.16
2018-03-17T11:00:00.200Z,3.00
2018-03-17T11:05:23.951Z,3.28
2018-03-17T11:16:31.063Z,3.26
2018-03-17T11:19:00.165Z,3.22
2018-03-17T11:21:30.839Z,3.24
2018-03-17T11:23:59.989Z,3.21
2018-03-17T11:26:29.053Z,3.31
2018-03-17T11:29:01.726Z,3.35
2018-03-17T11:31:30.857Z,3.41
2018-03-17T11:33:59.981Z,3.54
2018-03-17T11:36:29.020Z,3.50
2018-03-17T11:38:58.598Z,3.66
2018-03-17T11:41:27.785Z,3.89
2018-03-17T11:43:59.312Z,3.60
2018-03-17T11:46:28.442Z,3.93
2018-03-17T12:00:36.830Z,3.65
2018-03-17T12:03:05.914Z,3.76
2018-03-17T12:05:35.029Z,3.65
2018-03-17T12:08:04.552Z,3.69
2018-03-17T12:10:33.669Z,3.82
2018-03-17T12:13:02.742Z,3.73
2018-03-17T12:15:31.879Z,3.80
2018-03-17T12:18:01.426Z,3.87
2018-03-17T12:20:49.971Z,3.91
2018-03-17T12:23:22.031Z,3.95
2018-03-17T12:25:51.242Z,3.89
2018-03-17T12:28:20.457Z,3.83
2018-03-17T12:30:49.888Z,3.82
2018-03-17T12:33:18.932Z,3.30
2018-03-17T12:35:48.061Z,3.40
2018-03-17T12:38:17.507Z,3.47
2018-03-17T12:40:46.531Z,3.66
2018-03-17T12:43:15.578Z,3.85
2018-03-17T12:45:46.937Z,3.64
2018-03-17T12:48:16.038Z,3.39
2018-03-17T12:50:45.154Z,3.60
2018-03-17T12:53:14.705Z,3.49
2018-03-17T12:55:43.868Z,3.55
2018-03-17T12:58:13.065Z,3.64
2018-03-17T13:00:42.537Z,3.59
2018-03-17T13:03:11.620Z,3.65
2018-03-17T13:05:40.713Z,3.39
2018-03-17T13:08:11.109Z,3.41
2018-03-17T13:10:40.190Z,3.64
2018-03-17T13:13:09.278Z,3.47
2018-03-17T13:15:38.586Z,3.57
2018-03-17T13:18:08.586Z,3.58
2018-03-17T13:20:37.653Z,3.34
2018-03-17T13:23:15.423Z,3.44
2018-03-17T13:25:44.528Z,3.44
2018-03-17T13:28:23.570Z,3.51
2018-03-17T13:30:52.700Z,3.45
2018-03-17T13:33:21.910Z,3.37
2018-03-17T13:38:03.133Z,3.26
2018-03-17T13:40:34.193Z,3.40
2018-03-17T13:43:03.371Z,3.26
2018-03-17T13:45:32.456Z,3.01
2018-03-17T13:48:02.865Z,3.25
2018-03-17T13:50:33.415Z,3.01
2018-03-17T13:53:02.685Z,3.33
2018-03-17T13:55:31.907Z,3.32
2018-03-17T13:58:01.218Z,3.31
2018-03-17T14:00:30.493Z,3.39
2018-03-17T14:02:59.781Z,3.27
2018-03-17T14:05:28.923Z,3.23
2018-03-17T14:07:58.495Z,3.31
2018-03-17T14:10:27.670Z,3.34
2018-03-17T14:12:57.208Z,3.20
2018-03-17T14:15:26.941Z,2.94
2018-03-17T14:17:56.109Z,3.09
2018-03-17T14:20:25.294Z,3.02
2018-03-17T14:22:54.333Z,2.93
2018-03-17T14:25:23.513Z,3.03
2018-03-17T14:27:54.315Z,3.04
2018-03-17T14:30:24.601Z,3.04
2018-03-17T14:32:54.920Z,3.25
2018-03-17T14:35:28.097Z,3.05
2018-03-17T14:37:57.581Z,2.96
2018-03-17T14:40:27.604Z,2.76
2018-03-17T14:42:56.998Z,2.80
2018-03-17T14:45:26.272Z,3.06
2018-03-17T14:47:55.757Z,2.93
2018-03-17T14:50:24.880Z,2.89
2018-03-17T14:52:54.525Z,2.81
2018-03-17T14:55:23.696Z,2.90
2018-03-17T14:57:52.810Z,2.98
2018-03-17T15:00:21.995Z,2.99
2018-03-17T15:02:51.408Z,2.92
2018-03-17T15:05:20.514Z,2.99
2018-03-17T15:08:01.094Z,2.56
2018-03-17T15:10:31.794Z,2.70
2018-03-17T15:13:01.182Z,2.58
2018-03-17T15:15:31.018Z,2.80
2018-03-17T15:18:02.079Z,2.75
2018-03-17T15:20:31.615Z,2.75
2018-03-17T15:23:01.307Z,2.83
2018-03-17T15:25:31.673Z,2.91
2018-03-17T15:28:00.737Z,2.85
2018-03-17T15:30:29.897Z,3.07
2018-03-17T15:32:59.400Z,2.86
2018-03-17T15:35:28.531Z,2.77
2018-03-17T15:37:57.557Z,2.55
2018-03-17T15:40:26.887Z,2.67
2018-03-17T15:42:56.398Z,2.55
2018-03-17T15:45:25.896Z,2.63
2018-03-17T15:47:55.088Z,2.58
2018-03-17T15:50:24.234Z,2.53
2018-03-17T15:52:53.640Z,2.58
2018-03-17T15:55:24.435Z,2.42
2018-03-17T15:57:53.630Z,2.40
2018-03-17T16:00:24.667Z,2.54
2018-03-17T16:02:54.506Z,2.47
2018-03-17T16:05:24.134Z,2.46
2018-03-17T16:07:53.811Z,2.45
2018-03-17T16:10:22.926Z,2.49
2018-03-17T16:12:52.088Z,2.75
2018-03-17T16:15:21.358Z,2.58
2018-03-17T16:17:51.797Z,2.50
2018-03-17T16:20:20.898Z,2.46
2018-03-17T16:22:52.593Z,2.37
2018-03-17T16:25:21.761Z,2.45
2018-03-17T16:27:51.039Z,2.40
2018-03-17T16:30:20.208Z,2.39
2018-03-17T16:32:49.821Z,2.32
2018-03-17T16:35:19.268Z,2.42
2018-03-17T16:37:49.387Z,2.47
2018-03-17T16:40:18.566Z,2.46
2018-03-17T16:42:48.263Z,2.53
2018-03-17T16:45:17.336Z,2.31
2018-03-17T16:47:46.530Z,2.11
2018-03-17T16:50:16.907Z,2.25
2018-03-17T16:52:45.965Z,2.36
2018-03-17T16:55:15.756Z,2.32
2018-03-17T16:57:46.107Z,2.39
2018-03-17T17:00:15.389Z,2.35
2018-03-17T17:02:45.512Z,2.32
2018-03-17T17:05:15.154Z,2.44
2018-03-17T17:07:44.171Z,2.53
2018-03-17T17:10:13.266Z,2.38
2018-03-17T17:12:47.813Z,2.33
2018-03-17T17:15:17.024Z,2.37
2018-03-17T17:17:46.410Z,2.15
2018-03-17T17:20:15.843Z,2.17
2018-03-17T17:22:45.484Z,2.24
2018-03-17T17:25:14.637Z,2.12
2018-03-17T17:27:46.162Z,2.04
2018-03-17T17:30:15.452Z,2.16
2018-03-17T17:32:44.585Z,1.98
2018-03-17T17:35:15.068Z,1.88
2018-03-17T17:37:44.162Z,2.08
2018-03-17T17:40:13.254Z,1.99
2018-03-17T17:42:42.453Z,2.05
2018-03-17T17:45:11.579Z,1.84
2018-03-17T17:47:41.569Z,1.85
2018-03-17T17:50:13.370Z,1.88
2018-03-17T17:52:42.546Z,1.79
2018-03-17T17:55:11.768Z,1.91
2018-03-17T17:57:41.121Z,2.01
2018-03-17T18:00:10.293Z,2.18
2018-03-17T18:02:39.382Z,1.77
2018-03-17T18:05:08.997Z,1.68
2018-03-17T18:07:39.247Z,1.83
2018-03-17T18:10:08.413Z,1.72
2018-03-17T18:12:39.066Z,1.77
2018-03-17T18:15:08.357Z,1.84
2018-03-17T18:17:38.050Z,2.10
2018-03-17T18:20:12.679Z,1.89
2018-03-17T18:22:42.306Z,1.92
2018-03-17T18:25:12.060Z,1.93
2018-03-17T18:27:44.372Z,2.00
2018-03-17T18:30:13.607Z,1.71
2018-03-17T18:32:42.967Z,1.63
2018-03-17T18:35:17.636Z,1.61
2018-03-17T18:37:46.918Z,1.76
2018-03-17T18:40:16.487Z,1.90
2018-03-17T18:42:52.004Z,1.71
2018-03-17T18:45:21.255Z,1.73
2018-03-17T18:53:50.607Z,1.76
2018-03-17T18:56:19.706Z,1.83
2018-03-17T18:58:52.072Z,1.77
2018-03-17T19:01:21.763Z,1.71
2018-03-17T19:03:50.981Z,1.73
2018-03-17T19:06:20.530Z,1.65
2018-03-17T19:08:51.763Z,1.62
2018-03-17T19:11:20.826Z,1.51
2018-03-17T19:13:51.259Z,1.52
2018-03-17T19:16:20.857Z,1.57
2018-03-17T19:18:55.854Z,1.47
2018-03-17T19:21:24.970Z,1.40
2018-03-17T19:23:55.340Z,1.51
2018-03-17T19:26:24.675Z,1.52
2018-03-17T19:28:55.196Z,1.45
2018-03-17T19:31:24.397Z,1.41
2018-03-17T19:33:53.815Z,1.38
2018-03-17T19:36:23.071Z,1.26
2018-03-17T19:38:52.439Z,1.19
2018-03-17T19:41:22.141Z,1.23
2018-03-17T19:43:51.438Z,1.16
2018-03-17T19:46:21.082Z,1.13
2018-03-17T19:48:50.495Z,1.11
2018-03-17T19:52:35.228Z,1.12
2018-03-17T19:55:04.679Z,1.07
2018-03-17T19:57:34.939Z,1.17
2018-03-17T20:00:04.203Z,0.95
2018-03-17T20:02:36.247Z,1.06
2018-03-17T20:05:05.395Z,1.14
2018-03-17T20:07:34.620Z,1.06
2018-03-17T20:10:03.895Z,1.12
2018-03-17T20:12:33.040Z,0.95
2018-03-17T20:15:04.957Z,0.95
2018-03-17T20:17:36.659Z,1.11
2018-03-17T20:20:05.999Z,0.97
2018-03-17T20:22:35.518Z,0.80
2018-03-17T20:25:05.432Z,0.91
2018-03-17T20:27:35.447Z,0.96
2018-03-17T20:30:05.158Z,0.90
2018-03-17T20:32:34.820Z,0.83
2018-03-17T20:35:04.133Z,0.91
2018-03-17T20:37:33.539Z,0.95
2018-03-17T20:40:03.032Z,1.01
2018-03-17T20:42:32.160Z,0.85
2018-03-17T20:45:02.254Z,0.82
2018-03-17T20:47:31.484Z,0.80
2018-03-17T20:50:01.561Z,0.76
2018-03-17T20:52:30.756Z,0.59
2018-03-17T20:55:01.746Z,0.61
2018-03-17T20:57:30.895Z,0.78
2018-03-17T21:00:01.123Z,0.80
2018-03-17T21:02:34.920Z,0.64
2018-03-17T21:05:04.394Z,0.58
2018-03-17T21:07:33.787Z,0.57
2018-03-17T21:10:03.180Z,0.69
2018-03-17T21:12:32.233Z,0.32
2018-03-17T21:15:01.443Z,0.19
2018-03-17T21:17:31.164Z,0.24
2018-03-17T21:20:01.458Z,0.32
2018-03-17T21:22:30.764Z,0.08
2018-03-17T21:25:01.697Z,-0.11
2018-03-17T21:27:30.784Z,-0.11
2018-03-17T21:29:59.979Z,-0.05
2018-03-17T21:32:29.505Z,-0.16
2018-03-17T21:34:59.673Z,-0.16
2018-03-17T21:37:31.021Z,-0.15
2018-03-17T21:40:01.036Z,-0.06
2018-03-17T21:42:30.364Z,-0.05
2018-03-17T21:44:59.556Z,-0.37
2018-03-17T21:47:28.789Z,-0.14
2018-03-17T21:49:58.122Z,-0.27
2018-03-17T21:52:27.297Z,-0.21
2018-03-17T21:54:56.628Z,-0.33
2018-03-17T21:57:26.515Z,-0.38
2018-03-17T21:59:55.996Z,-0.24
2018-03-17T22:02:26.222Z,-0.24
2018-03-17T22:04:55.298Z,-0.04
2018-03-17T22:07:24.369Z,0.08
2018-03-17T22:09:53.553Z,-0.24
2018-03-17T22:12:23.180Z,-0.15
2018-03-17T22:14:52.261Z,-0.02
2018-03-17T22:17:21.682Z,-0.24
2018-03-17T22:19:54.227Z,-0.13
2018-03-17T22:22:23.425Z,-0.33
2018-03-17T22:24:52.493Z,-0.31
2018-03-17T22:27:21.752Z,-0.10
2018-03-17T22:29:50.844Z,-0.10
2018-03-17T22:32:19.870Z,-0.37
2018-03-17T22:34:50.436Z,-0.25
2018-03-17T22:37:25.966Z,-0.64
2018-03-17T22:39:55.047Z,-0.58
2018-03-17T22:42:24.262Z,-0.23
2018-03-17T22:44:53.355Z,-0.54
2018-03-17T22:47:22.432Z,-0.36
2018-03-17T22:49:51.637Z,-0.33
2018-03-17T22:52:20.854Z,-0.38
2018-03-17T22:54:49.992Z,-0.64
2018-03-17T22:57:20.550Z,-0.81
2018-03-17T22:59:49.637Z,-0.49
2018-03-17T23:02:19.588Z,-0.42
2018-03-17T23:04:49.051Z,-0.86
2018-03-17T23:07:18.189Z,-0.67
2018-03-17T23:09:47.640Z,-0.69
2018-03-17T23:12:17.612Z,-0.52
2018-03-17T23:14:46.917Z,-0.40
2018-03-17T23:17:16.403Z,-0.37
2018-03-17T23:19:45.925Z,-0.39
2018-03-17T23:22:14.992Z,-0.57
2018-03-17T23:24:44.258Z,-0.50
2018-03-17T23:27:16.661Z,-0.53
2018-03-17T23:29:45.870Z,-0.37
2018-03-17T23:32:16.219Z,-0.75
2018-03-17T23:34:45.804Z,-0.74
2018-03-17T23:37:15.043Z,-0.77
2018-03-17T23:39:45.722Z,-0.74
2018-03-17T23:42:15.118Z,-0.81
2018-03-17T23:44:46.048Z,-0.70
2018-03-17T23:47:16.060Z,-0.82
2018-03-17T23:49:45.250Z,-0.64
2018-03-17T23:52:14.631Z,-0.87
2018-03-17T23:54:45.734Z,-0.85
2018-03-17T23:57:14.977Z,-0.80
2018-03-17T23:59:46.685Z,-0.85
